sensor_id;sensor_type;location;lat;lon;timestamp;P1;durP1;ratioP1;P2;durP2;ratioP2
20038;SDS011;21737;42.868;25.320;2022-09-03T00:03:11;2.63;;;1.20;;
20038;SDS011;21737;42.868;25.320;2022-09-03T00:06:15;2.10;;;0.80;;
20038;SDS011;21737;42.868;25.320;2022-09-03T00:12:25;1.17;;;1.03;;
20038;SDS011;21737;42.868;25.320;2022-09-03T00:15:28;1.40;;;0.87;;
20038;SDS011;21737;42.868;25.320;2022-09-03T00:18:32;1.63;;;0.90;;
20038;SDS011;21737;42.868;25.320;2022-09-03T00:21:40;0.90;;;0.90;;
20038;SDS011;21737;42.868;25.320;2022-09-03T00:24:44;1.20;;;0.90;;
20038;SDS011;21737;42.868;25.320;2022-09-03T00:27:47;1.17;;;0.80;;
20038;SDS011;21737;42.868;25.320;2022-09-03T00:30:55;0.70;;;0.70;;
20038;SDS011;21737;42.868;25.320;2022-09-03T00:34:01;1.77;;;0.80;;
20038;SDS011;21737;42.868;25.320;2022-09-03T00:37:06;2.03;;;0.90;;
20038;SDS011;21737;42.868;25.320;2022-09-03T00:40:21;1.43;;;0.53;;
20038;SDS011;21737;42.868;25.320;2022-09-03T00:46:41;1.60;;;0.80;;
20038;SDS011;21737;42.868;25.320;2022-09-03T00:49:52;4.43;;;0.70;;
20038;SDS011;21737;42.868;25.320;2022-09-03T00:53:12;1.17;;;0.83;;
20038;SDS011;21737;42.868;25.320;2022-09-03T01:06:09;1.17;;;0.50;;
20038;SDS011;21737;42.868;25.320;2022-09-03T01:31:57;0.60;;;0.60;;
20038;SDS011;21737;42.868;25.320;2022-09-03T01:45:14;1.63;;;0.60;;
20038;SDS011;21737;42.868;25.320;2022-09-03T01:48:26;0.73;;;0.60;;
20038;SDS011;21737;42.868;25.320;2022-09-03T01:51:31;2.40;;;1.03;;
20038;SDS011;21737;42.868;25.320;2022-09-03T01:57:42;0.77;;;0.70;;
20038;SDS011;21737;42.868;25.320;2022-09-03T02:00:48;2.63;;;0.60;;
20038;SDS011;21737;42.868;25.320;2022-09-03T02:03:52;1.70;;;0.67;;
20038;SDS011;21737;42.868;25.320;2022-09-03T02:06:56;1.40;;;0.77;;
20038;SDS011;21737;42.868;25.320;2022-09-03T02:10:00;1.33;;;0.87;;
20038;SDS011;21737;42.868;25.320;2022-09-03T02:13:09;0.63;;;0.63;;
20038;SDS011;21737;42.868;25.320;2022-09-03T02:16:13;0.63;;;0.60;;
20038;SDS011;21737;42.868;25.320;2022-09-03T02:19:15;0.67;;;0.60;;
20038;SDS011;21737;42.868;25.320;2022-09-03T02:22:18;1.37;;;0.67;;
20038;SDS011;21737;42.868;25.320;2022-09-03T02:25:19;0.50;;;0.50;;
20038;SDS011;21737;42.868;25.320;2022-09-03T02:28:22;1.20;;;0.70;;
20038;SDS011;21737;42.868;25.320;2022-09-03T02:31:24;1.33;;;0.70;;
20038;SDS011;21737;42.868;25.320;2022-09-03T02:34:26;1.40;;;0.60;;
20038;SDS011;21737;42.868;25.320;2022-09-03T02:37:27;2.30;;;0.60;;
20038;SDS011;21737;42.868;25.320;2022-09-03T02:40:29;1.73;;;0.70;;
20038;SDS011;21737;42.868;25.320;2022-09-03T02:43:33;0.60;;;0.60;;
20038;SDS011;21737;42.868;25.320;2022-09-03T02:46:39;0.63;;;0.63;;
20038;SDS011;21737;42.868;25.320;2022-09-03T02:49:41;0.63;;;0.53;;
20038;SDS011;21737;42.868;25.320;2022-09-03T02:52:42;0.57;;;0.57;;
20038;SDS011;21737;42.868;25.320;2022-09-03T02:55:44;0.40;;;0.40;;
20038;SDS011;21737;42.868;25.320;2022-09-03T02:58:46;2.00;;;0.70;;
20038;SDS011;21737;42.868;25.320;2022-09-03T03:01:48;0.33;;;0.33;;
20038;SDS011;21737;42.868;25.320;2022-09-03T03:04:50;0.40;;;0.40;;
20038;SDS011;21737;42.868;25.320;2022-09-03T03:07:52;0.97;;;0.60;;
20038;SDS011;21737;42.868;25.320;2022-09-03T03:10:54;3.03;;;0.60;;
20038;SDS011;21737;42.868;25.320;2022-09-03T03:14:01;1.00;;;0.60;;
20038;SDS011;21737;42.868;25.320;2022-09-03T03:17:02;1.20;;;0.60;;
20038;SDS011;21737;42.868;25.320;2022-09-03T03:20:04;0.53;;;0.53;;
20038;SDS011;21737;42.868;25.320;2022-09-03T03:23:06;1.40;;;0.30;;
20038;SDS011;21737;42.868;25.320;2022-09-03T03:26:09;0.83;;;0.40;;
20038;SDS011;21737;42.868;25.320;2022-09-03T03:29:15;1.40;;;0.60;;
20038;SDS011;21737;42.868;25.320;2022-09-03T03:32:18;0.30;;;0.30;;
20038;SDS011;21737;42.868;25.320;2022-09-03T03:35:19;1.93;;;0.50;;
20038;SDS011;21737;42.868;25.320;2022-09-03T03:38:21;0.53;;;0.50;;
20038;SDS011;21737;42.868;25.320;2022-09-03T03:41:24;0.40;;;0.40;;
20038;SDS011;21737;42.868;25.320;2022-09-03T03:44:26;0.50;;;0.50;;
20038;SDS011;21737;42.868;25.320;2022-09-03T03:47:28;0.50;;;0.50;;
20038;SDS011;21737;42.868;25.320;2022-09-03T03:50:33;0.63;;;0.50;;
20038;SDS011;21737;42.868;25.320;2022-09-03T03:53:36;0.50;;;0.50;;
20038;SDS011;21737;42.868;25.320;2022-09-03T03:56:38;0.60;;;0.60;;
20038;SDS011;21737;42.868;25.320;2022-09-03T03:59:40;1.50;;;0.30;;
20038;SDS011;21737;42.868;25.320;2022-09-03T04:02:41;0.50;;;0.50;;
20038;SDS011;21737;42.868;25.320;2022-09-03T04:05:53;1.57;;;0.57;;
20038;SDS011;21737;42.868;25.320;2022-09-03T04:08:55;0.90;;;0.50;;
20038;SDS011;21737;42.868;25.320;2022-09-03T04:11:57;0.90;;;0.60;;
20038;SDS011;21737;42.868;25.320;2022-09-03T04:14:58;2.57;;;0.70;;
20038;SDS011;21737;42.868;25.320;2022-09-03T04:18:00;3.80;;;1.10;;
20038;SDS011;21737;42.868;25.320;2022-09-03T04:21:03;1.00;;;0.83;;
20038;SDS011;21737;42.868;25.320;2022-09-03T04:24:05;2.13;;;1.80;;
20038;SDS011;21737;42.868;25.320;2022-09-03T04:27:07;2.80;;;0.80;;
20038;SDS011;21737;42.868;25.320;2022-09-03T04:30:09;1.80;;;0.90;;
20038;SDS011;21737;42.868;25.320;2022-09-03T04:33:11;2.20;;;0.90;;
20038;SDS011;21737;42.868;25.320;2022-09-03T04:36:18;2.40;;;0.90;;
20038;SDS011;21737;42.868;25.320;2022-09-03T04:39:20;0.93;;;0.93;;
20038;SDS011;21737;42.868;25.320;2022-09-03T04:42:22;1.10;;;0.80;;
20038;SDS011;21737;42.868;25.320;2022-09-03T04:45:24;1.10;;;0.90;;
20038;SDS011;21737;42.868;25.320;2022-09-03T04:48:26;1.40;;;1.23;;
20038;SDS011;21737;42.868;25.320;2022-09-03T04:51:29;1.00;;;0.90;;
20038;SDS011;21737;42.868;25.320;2022-09-03T04:54:31;2.73;;;0.97;;
20038;SDS011;21737;42.868;25.320;2022-09-03T04:57:33;1.00;;;0.90;;
20038;SDS011;21737;42.868;25.320;2022-09-03T05:00:38;2.10;;;1.00;;
20038;SDS011;21737;42.868;25.320;2022-09-03T05:03:40;1.80;;;1.00;;
20038;SDS011;21737;42.868;25.320;2022-09-03T05:06:41;2.20;;;1.00;;
20038;SDS011;21737;42.868;25.320;2022-09-03T05:09:43;0.93;;;0.93;;
20038;SDS011;21737;42.868;25.320;2022-09-03T05:12:46;1.93;;;1.10;;
20038;SDS011;21737;42.868;25.320;2022-09-03T05:15:48;1.30;;;1.20;;
20038;SDS011;21737;42.868;25.320;2022-09-03T05:18:53;2.10;;;1.37;;
20038;SDS011;21737;42.868;25.320;2022-09-03T05:21:55;2.00;;;1.70;;
20038;SDS011;21737;42.868;25.320;2022-09-03T05:24:57;2.83;;;1.80;;
20038;SDS011;21737;42.868;25.320;2022-09-03T05:27:59;3.27;;;2.03;;
20038;SDS011;21737;42.868;25.320;2022-09-03T05:31:07;5.20;;;2.00;;
20038;SDS011;21737;42.868;25.320;2022-09-03T05:34:09;4.73;;;2.53;;
20038;SDS011;21737;42.868;25.320;2022-09-03T05:37:18;5.13;;;2.43;;
20038;SDS011;21737;42.868;25.320;2022-09-03T05:40:20;4.77;;;2.77;;
20038;SDS011;21737;42.868;25.320;2022-09-03T05:43:22;5.17;;;3.33;;
20038;SDS011;21737;42.868;25.320;2022-09-03T05:46:28;4.70;;;2.70;;
20038;SDS011;21737;42.868;25.320;2022-09-03T05:49:33;6.60;;;2.80;;
20038;SDS011;21737;42.868;25.320;2022-09-03T05:52:36;6.93;;;2.80;;
20038;SDS011;21737;42.868;25.320;2022-09-03T05:55:41;6.83;;;3.00;;
20038;SDS011;21737;42.868;25.320;2022-09-03T05:58:43;5.83;;;3.20;;
20038;SDS011;21737;42.868;25.320;2022-09-03T06:01:46;5.00;;;3.00;;
20038;SDS011;21737;42.868;25.320;2022-09-03T06:04:53;4.00;;;3.40;;
20038;SDS011;21737;42.868;25.320;2022-09-03T06:07:56;7.10;;;4.23;;
20038;SDS011;21737;42.868;25.320;2022-09-03T06:10:58;5.30;;;3.40;;
20038;SDS011;21737;42.868;25.320;2022-09-03T06:14:01;7.33;;;3.53;;
20038;SDS011;21737;42.868;25.320;2022-09-03T06:17:03;6.47;;;4.00;;
20038;SDS011;21737;42.868;25.320;2022-09-03T06:20:04;5.07;;;3.40;;
20038;SDS011;21737;42.868;25.320;2022-09-03T06:23:06;5.70;;;4.03;;
20038;SDS011;21737;42.868;25.320;2022-09-03T06:26:09;8.40;;;4.87;;
20038;SDS011;21737;42.868;25.320;2022-09-03T06:29:11;9.63;;;4.53;;
20038;SDS011;21737;42.868;25.320;2022-09-03T06:32:13;7.93;;;4.40;;
20038;SDS011;21737;42.868;25.320;2022-09-03T06:35:15;8.50;;;4.90;;
20038;SDS011;21737;42.868;25.320;2022-09-03T06:38:20;6.07;;;4.10;;
20038;SDS011;21737;42.868;25.320;2022-09-03T06:41:25;6.63;;;4.57;;
20038;SDS011;21737;42.868;25.320;2022-09-03T06:44:27;5.70;;;4.33;;
20038;SDS011;21737;42.868;25.320;2022-09-03T06:47:29;7.90;;;4.77;;
20038;SDS011;21737;42.868;25.320;2022-09-03T06:50:31;14.57;;;5.83;;
20038;SDS011;21737;42.868;25.320;2022-09-03T06:53:36;12.73;;;6.93;;
20038;SDS011;21737;42.868;25.320;2022-09-03T06:56:38;7.57;;;4.60;;
20038;SDS011;21737;42.868;25.320;2022-09-03T06:59:41;9.07;;;5.17;;
20038;SDS011;21737;42.868;25.320;2022-09-03T07:02:44;13.27;;;5.60;;
20038;SDS011;21737;42.868;25.320;2022-09-03T07:05:46;8.23;;;4.83;;
20038;SDS011;21737;42.868;25.320;2022-09-03T07:08:47;8.93;;;4.43;;
20038;SDS011;21737;42.868;25.320;2022-09-03T07:11:49;9.67;;;5.00;;
20038;SDS011;21737;42.868;25.320;2022-09-03T07:14:51;6.50;;;4.30;;
20038;SDS011;21737;42.868;25.320;2022-09-03T07:17:53;6.00;;;4.70;;
20038;SDS011;21737;42.868;25.320;2022-09-03T07:21:00;10.23;;;4.53;;
20038;SDS011;21737;42.868;25.320;2022-09-03T07:24:02;6.20;;;4.80;;
20038;SDS011;21737;42.868;25.320;2022-09-03T07:27:05;10.03;;;5.40;;
20038;SDS011;21737;42.868;25.320;2022-09-03T07:30:12;5.47;;;4.53;;
20038;SDS011;21737;42.868;25.320;2022-09-03T07:33:13;7.60;;;4.30;;
20038;SDS011;21737;42.868;25.320;2022-09-03T07:36:15;6.67;;;4.80;;
20038;SDS011;21737;42.868;25.320;2022-09-03T07:39:18;5.70;;;4.63;;
20038;SDS011;21737;42.868;25.320;2022-09-03T07:42:20;8.47;;;4.83;;
20038;SDS011;21737;42.868;25.320;2022-09-03T07:45:22;7.97;;;4.87;;
20038;SDS011;21737;42.868;25.320;2022-09-03T07:48:24;6.40;;;5.33;;
20038;SDS011;21737;42.868;25.320;2022-09-03T07:51:26;12.57;;;4.90;;
20038;SDS011;21737;42.868;25.320;2022-09-03T07:54:28;10.67;;;5.17;;
20038;SDS011;21737;42.868;25.320;2022-09-03T07:57:31;7.07;;;4.93;;
20038;SDS011;21737;42.868;25.320;2022-09-03T08:00:33;7.67;;;5.50;;
20038;SDS011;21737;42.868;25.320;2022-09-03T08:03:35;7.03;;;4.87;;
20038;SDS011;21737;42.868;25.320;2022-09-03T08:06:37;9.23;;;5.10;;
20038;SDS011;21737;42.868;25.320;2022-09-03T08:09:39;6.97;;;5.20;;
20038;SDS011;21737;42.868;25.320;2022-09-03T08:12:41;8.47;;;5.77;;
20038;SDS011;21737;42.868;25.320;2022-09-03T08:15:42;9.93;;;5.50;;
20038;SDS011;21737;42.868;25.320;2022-09-03T08:18:44;8.93;;;5.87;;
20038;SDS011;21737;42.868;25.320;2022-09-03T08:21:47;7.10;;;5.13;;
20038;SDS011;21737;42.868;25.320;2022-09-03T08:24:49;10.67;;;5.40;;
20038;SDS011;21737;42.868;25.320;2022-09-03T08:27:51;8.30;;;5.17;;
20038;SDS011;21737;42.868;25.320;2022-09-03T08:30:53;6.23;;;5.13;;
20038;SDS011;21737;42.868;25.320;2022-09-03T08:33:56;6.63;;;5.30;;
20038;SDS011;21737;42.868;25.320;2022-09-03T08:36:58;5.87;;;5.13;;
20038;SDS011;21737;42.868;25.320;2022-09-03T08:40:01;7.43;;;5.10;;
20038;SDS011;21737;42.868;25.320;2022-09-03T08:43:11;7.70;;;5.20;;
20038;SDS011;21737;42.868;25.320;2022-09-03T08:46:18;5.40;;;4.83;;
20038;SDS011;21737;42.868;25.320;2022-09-03T08:49:44;8.00;;;5.23;;
20038;SDS011;21737;42.868;25.320;2022-09-03T08:52:47;5.93;;;5.07;;
20038;SDS011;21737;42.868;25.320;2022-09-03T08:58:51;5.30;;;4.80;;
20038;SDS011;21737;42.868;25.320;2022-09-03T09:05:04;6.20;;;5.03;;
20038;SDS011;21737;42.868;25.320;2022-09-03T09:14:38;4.47;;;4.07;;
20038;SDS011;21737;42.868;25.320;2022-09-03T09:20:47;6.43;;;4.80;;
20038;SDS011;21737;42.868;25.320;2022-09-03T09:23:49;4.70;;;4.30;;
20038;SDS011;21737;42.868;25.320;2022-09-03T09:26:56;4.40;;;4.00;;
20038;SDS011;21737;42.868;25.320;2022-09-03T09:30:00;6.03;;;4.30;;
20038;SDS011;21737;42.868;25.320;2022-09-03T09:33:02;5.83;;;4.57;;
20038;SDS011;21737;42.868;25.320;2022-09-03T09:36:05;5.87;;;4.80;;
20038;SDS011;21737;42.868;25.320;2022-09-03T09:39:09;4.60;;;4.20;;
20038;SDS011;21737;42.868;25.320;2022-09-03T09:42:11;4.93;;;4.43;;
20038;SDS011;21737;42.868;25.320;2022-09-03T09:45:13;5.20;;;4.70;;
20038;SDS011;21737;42.868;25.320;2022-09-03T09:51:20;5.37;;;4.27;;
20038;SDS011;21737;42.868;25.320;2022-09-03T09:54:25;4.93;;;4.30;;
20038;SDS011;21737;42.868;25.320;2022-09-03T09:57:28;4.97;;;4.47;;
20038;SDS011;21737;42.868;25.320;2022-09-03T10:00:31;4.03;;;3.73;;
20038;SDS011;21737;42.868;25.320;2022-09-03T10:03:35;4.37;;;3.97;;
20038;SDS011;21737;42.868;25.320;2022-09-03T10:06:36;5.73;;;4.00;;
20038;SDS011;21737;42.868;25.320;2022-09-03T10:09:58;4.23;;;3.83;;
20038;SDS011;21737;42.868;25.320;2022-09-03T10:13:02;4.97;;;4.30;;
20038;SDS011;21737;42.868;25.320;2022-09-03T10:16:17;4.20;;;3.80;;
20038;SDS011;21737;42.868;25.320;2022-09-03T10:19:22;5.33;;;4.03;;
20038;SDS011;21737;42.868;25.320;2022-09-03T10:22:27;4.77;;;4.23;;
20038;SDS011;21737;42.868;25.320;2022-09-03T10:28:39;4.33;;;3.93;;
20038;SDS011;21737;42.868;25.320;2022-09-03T10:35:09;5.10;;;4.33;;
20038;SDS011;21737;42.868;25.320;2022-09-03T10:38:27;5.73;;;5.23;;
20038;SDS011;21737;42.868;25.320;2022-09-03T10:41:46;5.60;;;4.37;;
20038;SDS011;21737;42.868;25.320;2022-09-03T10:51:05;4.63;;;3.90;;
20038;SDS011;21737;42.868;25.320;2022-09-03T10:57:33;5.67;;;4.23;;
20038;SDS011;21737;42.868;25.320;2022-09-03T11:00:38;4.73;;;4.33;;
20038;SDS011;21737;42.868;25.320;2022-09-03T11:03:45;6.50;;;4.47;;
20038;SDS011;21737;42.868;25.320;2022-09-03T11:06:53;4.93;;;4.47;;
20038;SDS011;21737;42.868;25.320;2022-09-03T11:10:41;5.67;;;4.13;;
20038;SDS011;21737;42.868;25.320;2022-09-03T11:14:01;5.70;;;4.07;;
20038;SDS011;21737;42.868;25.320;2022-09-03T11:16:43;4.57;;;4.03;;
20038;SDS011;21737;42.868;25.320;2022-09-03T11:19:47;5.03;;;4.33;;
20038;SDS011;21737;42.868;25.320;2022-09-03T11:22:58;5.37;;;4.87;;
20038;SDS011;21737;42.868;25.320;2022-09-03T11:26:04;6.03;;;4.60;;
20038;SDS011;21737;42.868;25.320;2022-09-03T11:29:11;6.53;;;5.50;;
20038;SDS011;21737;42.868;25.320;2022-09-03T11:32:23;7.60;;;6.30;;
20038;SDS011;21737;42.868;25.320;2022-09-03T11:38:35;6.90;;;5.60;;
20038;SDS011;21737;42.868;25.320;2022-09-03T11:41:38;7.83;;;7.03;;
20038;SDS011;21737;42.868;25.320;2022-09-03T11:44:44;7.23;;;6.03;;
20038;SDS011;21737;42.868;25.320;2022-09-03T11:47:52;13.13;;;6.03;;
20038;SDS011;21737;42.868;25.320;2022-09-03T11:50:54;6.83;;;5.93;;
20038;SDS011;21737;42.868;25.320;2022-09-03T11:57:21;6.97;;;6.27;;
20038;SDS011;21737;42.868;25.320;2022-09-03T12:00:24;6.43;;;5.80;;
20038;SDS011;21737;42.868;25.320;2022-09-03T12:03:29;9.60;;;5.60;;
20038;SDS011;21737;42.868;25.320;2022-09-03T12:13:11;7.37;;;6.17;;
20038;SDS011;21737;42.868;25.320;2022-09-03T12:19:31;6.30;;;5.73;;
20038;SDS011;21737;42.868;25.320;2022-09-03T12:22:36;7.00;;;6.27;;
20038;SDS011;21737;42.868;25.320;2022-09-03T12:25:42;7.43;;;6.60;;
20038;SDS011;21737;42.868;25.320;2022-09-03T12:28:54;9.57;;;6.80;;
20038;SDS011;21737;42.868;25.320;2022-09-03T12:32:04;7.83;;;6.87;;
20038;SDS011;21737;42.868;25.320;2022-09-03T12:35:11;7.43;;;6.50;;
20038;SDS011;21737;42.868;25.320;2022-09-03T12:38:13;8.13;;;7.27;;
20038;SDS011;21737;42.868;25.320;2022-09-03T12:41:27;8.63;;;7.83;;
20038;SDS011;21737;42.868;25.320;2022-09-03T12:44:37;8.47;;;7.67;;
20038;SDS011;21737;42.868;25.320;2022-09-03T12:47:40;9.90;;;8.27;;
20038;SDS011;21737;42.868;25.320;2022-09-03T12:50:43;8.87;;;7.87;;
20038;SDS011;21737;42.868;25.320;2022-09-03T12:53:56;9.00;;;8.10;;
20038;SDS011;21737;42.868;25.320;2022-09-03T12:56:58;8.37;;;7.57;;
20038;SDS011;21737;42.868;25.320;2022-09-03T13:00:02;9.70;;;8.70;;
20038;SDS011;21737;42.868;25.320;2022-09-03T13:06:07;11.00;;;9.13;;
20038;SDS011;21737;42.868;25.320;2022-09-03T13:09:09;10.37;;;9.37;;
20038;SDS011;21737;42.868;25.320;2022-09-03T13:12:31;12.67;;;9.53;;
20038;SDS011;21737;42.868;25.320;2022-09-03T13:15:34;10.43;;;9.33;;
20038;SDS011;21737;42.868;25.320;2022-09-03T13:24:57;12.30;;;10.73;;
20038;SDS011;21737;42.868;25.320;2022-09-03T13:31:30;10.43;;;9.40;;
20038;SDS011;21737;42.868;25.320;2022-09-03T13:34:40;11.90;;;10.70;;
20038;SDS011;21737;42.868;25.320;2022-09-03T13:40:55;10.87;;;9.77;;
20038;SDS011;21737;42.868;25.320;2022-09-03T13:47:11;11.07;;;9.97;;
20038;SDS011;21737;42.868;25.320;2022-09-03T13:50:18;12.77;;;11.47;;
20038;SDS011;21737;42.868;25.320;2022-09-03T14:09:19;12.90;;;10.80;;
20038;SDS011;21737;42.868;25.320;2022-09-03T14:15:35;13.73;;;10.60;;
20038;SDS011;21737;42.868;25.320;2022-09-03T14:18:56;12.07;;;10.50;;
20038;SDS011;21737;42.868;25.320;2022-09-03T14:22:41;12.53;;;9.97;;
20038;SDS011;21737;42.868;25.320;2022-09-03T14:25:27;11.57;;;10.23;;
20038;SDS011;21737;42.868;25.320;2022-09-03T14:28:30;11.03;;;9.83;;
20038;SDS011;21737;42.868;25.320;2022-09-03T14:31:37;11.27;;;10.10;;
20038;SDS011;21737;42.868;25.320;2022-09-03T14:35:16;11.10;;;9.60;;
20038;SDS011;21737;42.868;25.320;2022-09-03T14:48:06;12.93;;;10.20;;
20038;SDS011;21737;42.868;25.320;2022-09-03T15:01:02;11.57;;;10.37;;
20038;SDS011;21737;42.868;25.320;2022-09-03T15:07:27;9.27;;;8.37;;
20038;SDS011;21737;42.868;25.320;2022-09-03T15:10:35;10.17;;;9.17;;
20038;SDS011;21737;42.868;25.320;2022-09-03T15:13:44;10.90;;;9.73;;
20038;SDS011;21737;42.868;25.320;2022-09-03T15:16:52;10.13;;;9.07;;
20038;SDS011;21737;42.868;25.320;2022-09-03T15:29:50;10.03;;;9.07;;
20038;SDS011;21737;42.868;25.320;2022-09-03T15:39:17;10.43;;;9.33;;
20038;SDS011;21737;42.868;25.320;2022-09-03T15:42:23;11.80;;;9.47;;
20038;SDS011;21737;42.868;25.320;2022-09-03T15:48:37;10.43;;;9.10;;
20038;SDS011;21737;42.868;25.320;2022-09-03T15:52:08;11.50;;;9.33;;
20038;SDS011;21737;42.868;25.320;2022-09-03T15:58:35;10.07;;;9.07;;
20038;SDS011;21737;42.868;25.320;2022-09-03T16:14:27;10.90;;;9.80;;
20038;SDS011;21737;42.868;25.320;2022-09-03T16:20:35;10.57;;;9.57;;
20038;SDS011;21737;42.868;25.320;2022-09-03T16:23:58;12.57;;;10.57;;
20038;SDS011;21737;42.868;25.320;2022-09-03T16:27:14;12.33;;;9.80;;
20038;SDS011;21737;42.868;25.320;2022-09-03T16:30:42;13.27;;;10.30;;
20038;SDS011;21737;42.868;25.320;2022-09-03T16:40:14;15.57;;;12.40;;
20038;SDS011;21737;42.868;25.320;2022-09-03T16:43:35;11.40;;;10.00;;
20038;SDS011;21737;42.868;25.320;2022-09-03T17:12:11;13.37;;;11.20;;
20038;SDS011;21737;42.868;25.320;2022-09-03T17:15:29;11.90;;;10.53;;
20038;SDS011;21737;42.868;25.320;2022-09-03T17:24:53;12.00;;;10.43;;
20038;SDS011;21737;42.868;25.320;2022-09-03T17:28:11;19.57;;;12.53;;
20038;SDS011;21737;42.868;25.320;2022-09-03T17:41:00;13.50;;;10.80;;
20038;SDS011;21737;42.868;25.320;2022-09-03T17:44:06;12.17;;;10.07;;
20038;SDS011;21737;42.868;25.320;2022-09-03T17:50:23;12.10;;;10.90;;
20038;SDS011;21737;42.868;25.320;2022-09-03T18:09:26;11.23;;;10.13;;
20038;SDS011;21737;42.868;25.320;2022-09-03T18:15:48;14.50;;;10.43;;
20038;SDS011;21737;42.868;25.320;2022-09-03T18:18:57;13.53;;;10.23;;
20038;SDS011;21737;42.868;25.320;2022-09-03T18:22:01;13.10;;;10.80;;
20038;SDS011;21737;42.868;25.320;2022-09-03T18:25:23;12.67;;;10.13;;
20038;SDS011;21737;42.868;25.320;2022-09-03T18:29:00;12.53;;;11.20;;
20038;SDS011;21737;42.868;25.320;2022-09-03T18:32:21;12.00;;;10.67;;
20038;SDS011;21737;42.868;25.320;2022-09-03T18:35:42;12.70;;;10.43;;
20038;SDS011;21737;42.868;25.320;2022-09-03T18:39:11;12.63;;;10.90;;
20038;SDS011;21737;42.868;25.320;2022-09-03T18:45:57;12.70;;;11.40;;
20038;SDS011;21737;42.868;25.320;2022-09-03T18:56:49;12.13;;;10.10;;
20038;SDS011;21737;42.868;25.320;2022-09-03T19:00:10;11.27;;;10.07;;
20038;SDS011;21737;42.868;25.320;2022-09-03T19:07:07;11.93;;;10.70;;
20038;SDS011;21737;42.868;25.320;2022-09-03T19:10:31;15.90;;;11.43;;
20038;SDS011;21737;42.868;25.320;2022-09-03T19:13:52;15.63;;;10.93;;
20038;SDS011;21737;42.868;25.320;2022-09-03T19:20:44;13.73;;;11.13;;
20038;SDS011;21737;42.868;25.320;2022-09-03T19:24:08;11.77;;;10.40;;
20038;SDS011;21737;42.868;25.320;2022-09-03T19:41:26;13.50;;;10.80;;
20038;SDS011;21737;42.868;25.320;2022-09-03T19:44:58;13.10;;;10.77;;
20038;SDS011;21737;42.868;25.320;2022-09-03T19:51:45;11.53;;;10.33;;
20038;SDS011;21737;42.868;25.320;2022-09-03T19:55:09;13.30;;;11.37;;
20038;SDS011;21737;42.868;25.320;2022-09-03T19:58:32;15.20;;;11.47;;
20038;SDS011;21737;42.868;25.320;2022-09-03T20:01:54;12.60;;;11.30;;
20038;SDS011;21737;42.868;25.320;2022-09-03T20:05:18;13.40;;;11.00;;
20038;SDS011;21737;42.868;25.320;2022-09-03T20:08:39;14.87;;;11.57;;
20038;SDS011;21737;42.868;25.320;2022-09-03T20:12:01;18.33;;;11.63;;
20038;SDS011;21737;42.868;25.320;2022-09-03T20:15:10;13.23;;;11.10;;
20038;SDS011;21737;42.868;25.320;2022-09-03T20:27:28;13.60;;;11.27;;
20038;SDS011;21737;42.868;25.320;2022-09-03T20:30:33;15.87;;;11.90;;
20038;SDS011;21737;42.868;25.320;2022-09-03T20:36:56;15.03;;;11.50;;
20038;SDS011;21737;42.868;25.320;2022-09-03T20:49:39;15.37;;;12.03;;
20038;SDS011;21737;42.868;25.320;2022-09-03T20:53:09;16.20;;;11.83;;
20038;SDS011;21737;42.868;25.320;2022-09-03T20:56:25;14.73;;;11.40;;
20038;SDS011;21737;42.868;25.320;2022-09-03T21:05:46;13.17;;;11.50;;
20038;SDS011;21737;42.868;25.320;2022-09-03T21:09:02;13.53;;;11.10;;
20038;SDS011;21737;42.868;25.320;2022-09-03T21:15:33;19.00;;;14.23;;
20038;SDS011;21737;42.868;25.320;2022-09-03T21:18:47;20.80;;;15.73;;
20038;SDS011;21737;42.868;25.320;2022-09-03T21:24:59;17.87;;;13.30;;
20038;SDS011;21737;42.868;25.320;2022-09-03T21:28:03;15.77;;;12.33;;
20038;SDS011;21737;42.868;25.320;2022-09-03T21:34:19;14.40;;;11.63;;
20038;SDS011;21737;42.868;25.320;2022-09-03T21:37:21;14.37;;;11.83;;
20038;SDS011;21737;42.868;25.320;2022-09-03T21:40:25;17.80;;;12.47;;
20038;SDS011;21737;42.868;25.320;2022-09-03T21:43:34;14.10;;;11.33;;
20038;SDS011;21737;42.868;25.320;2022-09-03T21:46:44;14.20;;;11.93;;
20038;SDS011;21737;42.868;25.320;2022-09-03T21:52:57;14.60;;;12.30;;
20038;SDS011;21737;42.868;25.320;2022-09-03T21:56:08;16.50;;;12.37;;
20038;SDS011;21737;42.868;25.320;2022-09-03T22:02:27;17.17;;;11.93;;
20038;SDS011;21737;42.868;25.320;2022-09-03T22:05:44;16.60;;;12.57;;
20038;SDS011;21737;42.868;25.320;2022-09-03T22:08:56;16.00;;;12.37;;
20038;SDS011;21737;42.868;25.320;2022-09-03T22:12:14;17.87;;;13.07;;
20038;SDS011;21737;42.868;25.320;2022-09-03T22:15:17;18.13;;;13.80;;
20038;SDS011;21737;42.868;25.320;2022-09-03T22:18:27;17.10;;;13.00;;
20038;SDS011;21737;42.868;25.320;2022-09-03T22:24:47;17.27;;;13.10;;
20038;SDS011;21737;42.868;25.320;2022-09-03T22:28:05;20.97;;;13.87;;
20038;SDS011;21737;42.868;25.320;2022-09-03T22:31:23;19.93;;;13.40;;
20038;SDS011;21737;42.868;25.320;2022-09-03T22:38:17;18.67;;;13.57;;
20038;SDS011;21737;42.868;25.320;2022-09-03T22:41:30;19.40;;;14.33;;
20038;SDS011;21737;42.868;25.320;2022-09-03T22:48:06;20.33;;;13.63;;
20038;SDS011;21737;42.868;25.320;2022-09-03T22:51:10;18.87;;;13.43;;
20038;SDS011;21737;42.868;25.320;2022-09-03T22:57:27;21.30;;;14.10;;
20038;SDS011;21737;42.868;25.320;2022-09-03T23:00:45;23.37;;;13.93;;
20038;SDS011;21737;42.868;25.320;2022-09-03T23:06:56;20.10;;;13.97;;
20038;SDS011;21737;42.868;25.320;2022-09-03T23:10:00;16.07;;;12.37;;
20038;SDS011;21737;42.868;25.320;2022-09-03T23:16:27;18.90;;;13.87;;
20038;SDS011;21737;42.868;25.320;2022-09-03T23:22:42;20.23;;;13.83;;
20038;SDS011;21737;42.868;25.320;2022-09-03T23:25:50;21.07;;;14.00;;
20038;SDS011;21737;42.868;25.320;2022-09-03T23:29:14;22.80;;;14.17;;
20038;SDS011;21737;42.868;25.320;2022-09-03T23:32:17;18.27;;;13.43;;
20038;SDS011;21737;42.868;25.320;2022-09-03T23:35:19;20.87;;;12.87;;
20038;SDS011;21737;42.868;25.320;2022-09-03T23:41:46;18.17;;;13.63;;
20038;SDS011;21737;42.868;25.320;2022-09-03T23:51:29;18.40;;;12.63;;
20038;SDS011;21737;42.868;25.320;2022-09-03T23:57:41;15.57;;;11.80;;
